Terminal Aerodrome Forecast
Issued by NWS

Home | Current Version | Previous Version | Graphics & Text | Print | Product List | Glossary On
Versions: 1 2 3 4 5 6 7 8 9 10 11 12 13 14 15 16
000
FTUS43 KLSX 251100
TAFSUS
TAF
KSUS 251125Z 2512/2612 VRB04KT 3SM BR SCT035
      TEMPO 2512/2513 2SM BR
     FM251500 32006KT P6SM SKC
     FM260000 VRB02KT P6SM SKC=

USA.gov is the U.S. government's official web portal to all federal, state and local government web resources and services.